Time;durP1;ratioP1;P1;durP2;ratioP2;P2;SDS_P1;SDS_P2;PMS_P1;PMS_P2;Temp;Humidity;BMP_temperature;BMP_pressure;BME280_temperature;BME280_humidity;BME280_pressure;Samples;Min_cycle;Max_cycle;Signal;HPM_P1;HPM_P2
2022/01/10 00:01:14;;;;;;;24.10;9.73;;;;;;;1.43;87.75;98134.79;1685115;81;21135;-86
2022/01/10 00:03:44;;;;;;;25.32;10.85;;;;;;;1.41;87.84;98133.94;1663271;82;21187;-84
2022/01/10 00:06:13;;;;;;;28.47;10.32;;;;;;;1.39;87.56;98130.97;1702915;83;21535;-86
2022/01/10 00:08:44;;;;;;;28.67;11.22;;;;;;;1.36;88.11;98129.69;1700656;82;21111;-83
2022/01/10 00:11:14;;;;;;;24.80;11.35;;;;;;;1.37;87.66;98146.78;1705092;81;21274;-84
2022/01/10 00:13:41;;;;;;;31.33;11.83;;;;;;;1.40;88.26;98135.66;1701959;81;21027;-85
2022/01/10 00:16:09;;;;;;;25.92;10.70;;;;;;;1.45;87.81;98126.67;1699766;81;21100;-84
2022/01/10 00:18:36;;;;;;;25.35;11.12;;;;;;;1.43;87.94;98127.10;1701568;81;21129;-86
2022/01/10 00:21:06;;;;;;;28.27;11.55;;;;;;;1.39;87.72;98124.57;1692462;81;21132;-85
2022/01/10 00:23:34;;;;;;;29.52;11.95;;;;;;;1.40;88.41;98119.02;1756549;80;21128;-85
2022/01/10 00:26:02;;;;;;;29.40;11.73;;;;;;;1.46;88.30;98120.70;1728568;79;21566;-83
2022/01/10 00:28:30;;;;;;;28.62;12.30;;;;;;;1.42;87.98;98127.54;1664538;86;21093;-85
2022/01/10 00:30:58;;;;;;;36.28;14.20;;;;;;;1.43;87.99;98121.98;1664595;86;21049;-81
2022/01/10 00:33:27;;;;;;;32.25;13.40;;;;;;;1.38;88.11;98116.89;1693003;79;21064;-83
2022/01/10 00:39:00;;;;;;;30.77;13.32;;;;;;;1.38;88.35;98116.89;1684282;80;21095;-82
2022/01/10 00:44:37;;;;;;;36.17;13.87;;;;;;;1.35;88.93;98119.04;1688386;78;21118;-83
2022/01/10 00:50:05;;;;;;;34.27;13.50;;;;;;;1.32;88.68;98112.64;1748711;79;21064;-82
2022/01/10 00:52:33;;;;;;;28.65;11.68;;;;;;;1.31;88.81;98115.20;1749610;78;21063;-82
2022/01/10 00:55:01;;;;;;;26.65;11.68;;;;;;;1.29;88.53;98113.91;1735651;82;21113;-85
2022/01/10 00:57:29;;;;;;;30.52;11.85;;;;;;;1.23;88.74;98111.37;1736152;80;21027;-84
2022/01/10 01:00:00;;;;;;;32.60;12.98;;;;;;;1.26;88.34;98111.82;1736315;82;21090;-85
2022/01/10 01:12:14;;;;;;;27.80;11.38;;;;;;;1.28;88.41;98123.75;1671740;82;21080;-81
2022/01/10 01:15:18;;;;;;;29.15;12.45;;;;;;;1.26;88.48;98115.22;1666422;83;21060;-87
2022/01/10 01:17:13;;;;;;;29.40;12.33;;;;;;;1.20;88.84;98103.72;1658819;83;21067;-84
2022/01/10 01:25:28;;;;;;;35.28;11.88;;;;;;;1.31;89.08;98098.14;1674553;82;21158;-81
2022/01/10 01:27:55;;;;;;;29.87;12.00;;;;;;;1.39;88.44;98098.09;1672710;83;20985;-85
2022/01/10 01:30:23;;;;;;;27.52;11.30;;;;;;;1.35;88.27;98097.27;1673221;81;21074;-83
2022/01/10 01:32:51;;;;;;;32.25;11.85;;;;;;;1.30;88.78;98101.55;1674936;83;21327;-83
2022/01/10 01:35:24;;;;;;;28.85;11.93;;;;;;;1.29;88.99;98095.14;1675004;83;21089;-85
2022/01/10 01:37:48;;;;;;;31.02;11.68;;;;;;;1.29;88.67;98098.98;1665267;82;21095;-84
2022/01/10 01:40:18;;;;;;;30.27;12.82;;;;;;;1.23;88.74;98106.25;1640800;85;21106;-82
2022/01/10 01:45:58;;;;;;;29.32;11.53;;;;;;;1.19;88.89;98102.01;1695417;81;21116;-82
2022/01/10 01:48:26;;;;;;;32.33;13.08;;;;;;;1.21;88.84;98095.61;1697156;81;21291;-82
2022/01/10 01:50:54;;;;;;;31.52;12.37;;;;;;;1.23;88.36;98099.02;1683238;81;21137;-79
2022/01/10 01:56:26;;;;;;;37.33;12.70;;;;;;;1.17;88.60;98116.52;1707546;80;21217;-81
2022/01/10 02:01:58;;;;;;;29.82;11.85;;;;;;;1.12;88.56;98116.55;1730094;79;21056;-81
2022/01/10 02:13:40;;;;;;;32.10;11.70;;;;;;;1.10;88.98;98098.22;1701898;80;21134;-76
2022/01/10 02:19:13;;;;;;;33.60;11.83;;;;;;;1.13;88.56;98093.91;1719190;79;21084;-83
2022/01/10 02:21:40;;;;;;;30.00;11.35;;;;;;;1.11;88.75;98094.34;1761163;80;21015;-81
2022/01/10 02:27:12;;;;;;;26.47;10.53;;;;;;;1.18;89.15;98108.00;1702226;82;21200;-83
2022/01/10 02:32:45;;;;;;;29.85;11.48;;;;;;;1.19;88.64;98121.20;1714694;80;21241;-82
2022/01/10 02:35:27;;;;;;;24.90;9.38;;;;;;;1.21;88.84;98123.77;1682972;81;21315;31
2022/01/10 02:37:56;;;;;;;27.17;10.98;;;;;;;1.26;89.13;98114.38;1644478;81;21056;-82
2022/01/10 02:43:33;;;;;;;23.52;9.08;;;;;;;1.33;88.34;98119.88;1681801;81;21173;-82
2022/01/10 02:49:18;;;;;;;28.17;10.88;;;;;;;1.27;88.53;98123.31;1677900;81;21075;-82
2022/01/10 02:57:41;;;;;;;26.82;10.80;;;;;;;1.27;89.53;98113.50;1669090;84;21291;-83
2022/01/10 03:00:18;;;;;;;25.57;10.58;;;;;;;1.27;89.19;98116.06;1668924;85;21074;-83
2022/01/10 03:02:52;;;;;;;25.05;9.40;;;;;;;1.27;89.11;98118.19;1667179;85;21031;-82
2022/01/10 03:05:24;;;;;;;23.98;9.93;;;;;;;1.27;89.28;98125.87;1667243;85;21127;-84
2022/01/10 03:08:02;;;;;;;27.67;10.85;;;;;;;1.33;88.92;98123.31;1704050;80;21488;-83
2022/01/10 03:13:31;;;;;;;27.60;9.60;;;;;;;1.42;88.95;98124.98;1677911;81;21185;31
2022/01/10 03:15:59;;;;;;;25.25;10.20;;;;;;;1.46;88.47;98134.35;1678224;85;21070;-80
2022/01/10 03:18:26;;;;;;;37.33;12.00;;;;;;;1.41;88.73;98125.82;1716438;82;20999;-81
2022/01/10 03:20:54;;;;;;;20.77;9.83;;;;;;;1.44;88.52;98122.42;1715842;81;20996;-84
2022/01/10 03:23:21;;;;;;;24.72;10.08;;;;;;;1.46;88.41;98120.27;1669294;83;21048;-82
2022/01/10 03:25:49;;;;;;;21.10;8.55;;;;;;;1.48;88.57;98124.11;1647149;87;21076;-85
2022/01/10 03:28:16;;;;;;;29.15;11.65;;;;;;;1.50;88.16;98115.98;1711104;84;21033;-81
2022/01/10 03:30:44;;;;;;;27.87;10.10;;;;;;;1.46;88.13;98123.27;1709158;81;21118;-85
2022/01/10 03:33:14;;;;;;;21.57;8.88;;;;;;;1.44;88.40;98130.10;1693022;79;21135;-82
2022/01/10 03:35:44;;;;;;;29.02;11.03;;;;;;;1.44;88.22;98130.95;1687274;80;21035;-84
2022/01/10 03:38:13;;;;;;;25.85;9.55;;;;;;;1.48;88.06;98135.63;1688527;79;21217;-83
2022/01/10 03:40:41;;;;;;;27.70;10.60;;;;;;;1.47;88.01;98139.03;1671815;85;21094;-85
2022/01/10 03:46:21;;;;;;;28.67;10.40;;;;;;;1.45;88.16;98137.75;1646866;81;21219;-82
2022/01/10 03:48:50;;;;;;;23.42;9.93;;;;;;;1.49;87.86;98141.16;1734537;78;21030;-83
2022/01/10 03:51:17;;;;;;;28.40;11.45;;;;;;;1.47;87.79;98150.56;1756933;79;20983;-83
2022/01/10 03:53:47;;;;;;;24.43;10.00;;;;;;;1.47;87.93;98157.81;1753466;78;21486;-82
2022/01/10 03:56:14;;;;;;;42.53;15.80;;;;;;;1.51;87.91;98154.81;1750619;82;21053;-83
2022/01/10 03:58:44;;;;;;;31.93;15.60;;;;;;;1.52;87.69;98165.06;1749411;82;21074;-83
2022/01/10 04:01:13;;;;;;;30.00;14.18;;;;;;;1.53;87.27;98165.91;1750933;82;21051;-84
2022/01/10 04:03:43;;;;;;;30.57;16.20;;;;;;;1.52;87.48;98163.78;1731036;79;21130;-86
2022/01/10 04:06:12;;;;;;;25.15;11.95;;;;;;;1.50;87.29;98167.22;1716407;82;21131;-82
2022/01/10 04:08:40;;;;;;;36.77;15.50;;;;;;;1.47;87.42;98171.05;1672949;85;21092;-85
2022/01/10 04:11:08;;;;;;;33.00;12.43;;;;;;;1.50;87.44;98173.63;1675564;85;20998;-85
2022/01/10 04:13:35;;;;;;;22.85;10.13;;;;;;;1.50;87.48;98173.19;1706060;83;21147;-83
2022/01/10 04:16:04;;;;;;;27.30;9.15;;;;;;;1.55;87.33;98172.75;1715033;83;21107;-83
2022/01/10 04:18:32;;;;;;;24.52;9.45;;;;;;;1.53;87.22;98177.44;1704967;83;21035;-85
2022/01/10 04:21:01;;;;;;;27.02;9.85;;;;;;;1.51;87.24;98182.59;1715730;83;21163;-86
2022/01/10 04:23:30;;;;;;;26.77;10.60;;;;;;;1.50;87.20;98183.87;1719614;82;21039;-84
2022/01/10 04:25:58;;;;;;;27.20;10.25;;;;;;;1.48;87.29;98186.43;1712674;83;21061;-83
2022/01/10 04:28:30;;;;;;;28.45;10.38;;;;;;;1.49;87.46;98188.55;1721383;80;21069;-83
2022/01/10 04:30:57;;;;;;;25.88;10.30;;;;;;;1.51;87.48;98191.96;1713150;80;21044;-83
2022/01/10 04:33:29;;;;;;;28.23;10.23;;;;;;;1.53;87.29;98194.09;1714351;81;21080;-80
2022/01/10 04:35:58;;;;;;;29.50;10.78;;;;;;;1.51;87.47;98190.27;1713456;83;21097;-82
2022/01/10 04:38:27;;;;;;;30.40;11.57;;;;;;;1.56;87.42;98192.81;1711730;81;21092;-84
2022/01/10 04:40:55;;;;;;;25.97;9.75;;;;;;;1.59;87.33;98192.78;1713931;83;21059;-84
2022/01/10 04:43:23;;;;;;;24.23;10.00;;;;;;;1.59;87.24;98191.50;1720664;83;21051;-84
2022/01/10 04:45:51;;;;;;;24.70;9.08;;;;;;;1.58;86.84;98196.22;1720967;81;21555;-82
2022/01/10 04:48:18;;;;;;;26.50;8.80;;;;;;;1.56;86.85;98200.06;1723060;80;21132;-82
2022/01/10 04:53:21;;;;;;;23.40;9.38;;;;;;;1.52;86.90;98202.20;1758746;78;21273;-82
2022/01/10 04:55:48;;;;;;;22.95;9.83;;;;;;;1.51;86.75;98198.36;1736012;78;21017;-85
2022/01/10 04:58:16;;;;;;;18.62;8.88;;;;;;;1.51;86.50;98209.89;1730223;80;21136;-82
2022/01/10 05:00:44;;;;;;;26.33;9.70;;;;;;;1.44;86.67;98208.22;1728319;83;21050;-79
2022/01/10 05:12:38;;;;;;;22.30;8.53;;;;;;;1.45;86.61;98222.72;1659664;81;21087;-85
2022/01/10 05:15:06;;;;;;;22.93;8.85;;;;;;;1.42;86.79;98224.02;1644176;81;21060;-81
2022/01/10 05:17:36;;;;;;;22.45;9.70;;;;;;;1.48;86.71;98229.12;1655525;84;21040;-85
2022/01/10 05:20:06;;;;;;;23.35;8.30;;;;;;;1.49;86.71;98234.66;1632593;88;21073;-81
2022/01/10 05:22:34;;;;;;;22.17;8.75;;;;;;;1.54;86.58;98233.80;1634201;83;21133;-83
2022/01/10 05:25:02;;;;;;;29.50;11.48;;;;;;;1.48;86.50;98237.66;1648124;82;21077;-85
2022/01/10 05:27:31;;;;;;;23.65;9.10;;;;;;;1.49;86.77;98242.34;1656354;82;21033;-84
2022/01/10 05:30:00;;;;;;;23.30;8.48;;;;;;;1.56;86.61;98246.61;1690671;83;21012;-84
2022/01/10 05:32:28;;;;;;;22.07;9.35;;;;;;;1.51;86.09;98252.16;1694071;83;21067;-85
2022/01/10 05:35:13;;;;;;;22.82;8.93;;;;;;;1.58;86.34;98251.30;1694421;83;20996;-80
2022/01/10 05:37:41;;;;;;;26.70;9.83;;;;;;;1.54;86.22;98245.77;1673232;83;21010;-82
2022/01/10 05:40:10;;;;;;;25.40;9.98;;;;;;;1.58;86.35;98250.86;1638565;83;21550;-80
2022/01/10 05:42:38;;;;;;;25.85;10.10;;;;;;;1.61;86.15;98256.40;1676647;85;21068;-82
2022/01/10 05:45:08;;;;;;;28.30;11.38;;;;;;;1.63;86.01;98255.97;1655095;86;21042;-83
2022/01/10 05:47:42;;;;;;;25.30;10.63;;;;;;;1.61;86.18;98255.55;1654727;84;21022;-84
2022/01/10 05:50:09;;;;;;;26.10;10.75;;;;;;;1.63;86.01;98257.69;1683268;84;21014;-83
2022/01/10 05:52:39;;;;;;;26.07;11.43;;;;;;;1.61;86.14;98269.20;1664029;84;21137;-83
2022/01/10 05:55:07;;;;;;;27.48;10.85;;;;;;;1.62;85.97;98270.93;1650008;83;21058;-82
2022/01/10 05:57:36;;;;;;;29.80;11.48;;;;;;;1.55;86.18;98271.38;1644696;84;21478;-84
2022/01/10 06:00:05;;;;;;;31.20;12.35;;;;;;;1.55;86.23;98270.51;1650198;83;21022;-85
2022/01/10 06:02:35;;;;;;;30.52;10.98;;;;;;;1.58;86.15;98280.33;1660312;82;21047;-83
2022/01/10 06:05:08;;;;;;;33.90;12.30;;;;;;;1.58;86.19;98284.61;1661910;85;21093;-85
2022/01/10 06:07:37;;;;;;;25.12;11.30;;;;;;;1.59;86.37;98287.58;1665206;81;21105;-85
2022/01/10 06:10:07;;;;;;;28.17;9.98;;;;;;;1.58;86.42;98289.73;1688271;83;21050;-84
2022/01/10 06:12:36;;;;;;;28.55;11.05;;;;;;;1.62;86.36;98296.55;1687658;83;21209;-85
2022/01/10 06:15:05;;;;;;;28.60;11.08;;;;;;;1.64;86.03;98293.99;1691772;83;21017;-85
2022/01/10 06:17:34;;;;;;;27.05;9.90;;;;;;;1.58;86.33;98292.29;1689906;84;21023;-84
2022/01/10 06:20:02;;;;;;;27.27;10.53;;;;;;;1.63;86.17;98293.12;1679491;83;21143;-88
2022/01/10 06:22:31;;;;;;;26.68;11.15;;;;;;;1.61;85.78;98302.95;1695549;82;21670;-87
2022/01/10 06:25:01;;;;;;;32.35;12.03;;;;;;;1.61;85.73;98302.95;1675473;81;21533;-85
2022/01/10 06:27:29;;;;;;;23.73;10.18;;;;;;;1.49;86.25;98291.89;1648893;82;21171;-88
2022/01/10 06:29:57;;;;;;;30.97;12.75;;;;;;;1.61;85.99;98304.23;1675145;81;21662;-89
2022/01/10 06:32:25;;;;;;;32.50;12.07;;;;;;;1.61;86.07;98298.67;1678656;85;21083;-91
2022/01/10 06:34:53;;;;;;;32.88;11.75;;;;;;;1.63;85.81;98305.92;1681324;81;21151;-81
2022/01/10 06:37:21;;;;;;;38.78;12.23;;;;;;;1.62;85.77;98306.80;1705778;83;21061;-85
2022/01/10 06:39:51;;;;;;;42.55;13.45;;;;;;;1.58;85.72;98303.38;1701005;82;21047;-86
2022/01/10 06:42:20;;;;;;;34.85;12.40;;;;;;;1.56;85.74;98309.37;1704105;82;21048;-85
2022/01/10 06:44:49;;;;;;;36.10;13.38;;;;;;;1.53;85.89;98314.09;1716483;79;21050;-85
2022/01/10 06:47:16;;;;;;;28.57;11.40;;;;;;;1.56;85.88;98311.94;1758951;81;21076;-88
2022/01/10 06:49:44;;;;;;;29.37;11.85;;;;;;;1.56;85.75;98320.47;1758852;82;21025;-82
2022/01/10 06:52:13;;;;;;;27.60;10.68;;;;;;;1.52;85.78;98320.05;1742313;79;21011;-82
2022/01/10 06:54:41;;;;;;;29.90;11.43;;;;;;;1.55;85.89;98324.30;1687000;82;21163;-86
2022/01/10 06:57:12;;;;;;;29.48;11.20;;;;;;;1.59;85.97;98328.16;1623699;84;21065;-85
2022/01/10 06:59:39;;;;;;;28.12;9.38;;;;;;;1.64;85.87;98328.15;1668484;81;21723;-85
2022/01/10 07:02:08;;;;;;;27.10;10.63;;;;;;;1.68;85.53;98327.28;1690959;80;21112;-85
2022/01/10 07:04:38;;;;;;;32.08;11.80;;;;;;;1.63;85.39;98330.27;1713434;79;21042;-85
2022/01/10 07:07:06;;;;;;;28.92;11.70;;;;;;;1.68;85.65;98332.84;1767441;79;21067;-84
2022/01/10 07:09:39;;;;;;;29.67;11.90;;;;;;;1.67;85.16;98332.00;1767434;80;22029;-84
2022/01/10 07:12:09;;;;;;;32.95;11.65;;;;;;;1.66;85.11;98339.69;1748459;80;21058;-86
2022/01/10 07:14:39;;;;;;;27.07;9.65;;;;;;;1.66;85.17;98341.80;1678617;84;21450;-87
2022/01/10 07:17:08;;;;;;;23.47;10.38;;;;;;;1.70;85.40;98349.06;1645438;83;21132;-86
2022/01/10 07:19:36;;;;;;;28.95;10.23;;;;;;;1.73;85.26;98344.80;1654361;85;21015;-86
2022/01/10 07:24:55;;;;;;;24.57;10.60;;;;;;;1.88;85.19;98352.03;1687896;81;21074;-87
2022/01/10 07:27:23;;;;;;;30.55;12.00;;;;;;;1.91;84.25;98357.13;1703782;82;21511;-89
2022/01/10 07:29:53;;;;;;;37.38;13.58;;;;;;;1.95;84.59;98357.55;1720472;80;21211;-82
2022/01/10 07:35:23;;;;;;;31.68;12.23;;;;;;;2.05;84.66;98370.80;1678594;80;21129;-88
2022/01/10 07:37:54;;;;;;;35.83;13.50;;;;;;;2.02;83.91;98370.78;1665575;82;21108;-88
2022/01/10 07:40:23;;;;;;;38.38;13.83;;;;;;;2.03;84.46;98375.07;1672755;81;21265;-88
2022/01/10 07:42:51;;;;;;;33.92;12.85;;;;;;;2.03;84.47;98376.35;1722300;79;21143;-87
2022/01/10 07:45:20;;;;;;;41.18;14.75;;;;;;;2.08;84.09;98381.46;1759176;81;21099;-84
2022/01/10 07:47:48;;;;;;;37.42;13.95;;;;;;;2.10;84.41;98379.74;1703375;81;21166;-81
2022/01/10 07:50:15;;;;;;;27.30;11.80;;;;;;;2.14;84.61;98382.28;1662578;84;21078;-83
2022/01/10 07:52:43;;;;;;;33.73;12.98;;;;;;;2.21;84.35;98386.98;1696749;82;21080;-87
2022/01/10 07:55:11;;;;;;;31.25;11.95;;;;;;;2.22;84.46;98380.14;1717595;82;21040;-90
2022/01/10 07:57:39;;;;;;;27.55;11.05;;;;;;;2.22;84.04;98389.12;1729754;81;21059;-88
2022/01/10 08:00:09;;;;;;;33.58;12.65;;;;;;;2.24;83.75;98389.97;1719519;80;21107;-89
2022/01/10 08:02:40;;;;;;;27.48;11.25;;;;;;;2.22;83.77;98387.84;1666956;80;21109;-82
2022/01/10 08:05:09;;;;;;;31.05;11.88;;;;;;;2.24;83.97;98392.53;1668945;84;21050;-84
2022/01/10 08:07:36;;;;;;;27.62;10.98;;;;;;;2.32;83.83;98394.20;1675088;83;21114;-83
2022/01/10 08:10:06;;;;;;;30.15;11.05;;;;;;;2.28;84.13;98389.09;1666118;83;21205;-85
2022/01/10 08:12:33;;;;;;;23.90;11.05;;;;;;;2.31;83.90;98400.20;1689853;81;21072;-88
2022/01/10 08:15:01;;;;;;;28.75;11.10;;;;;;;2.32;83.96;98387.78;1710449;82;21017;-90
2022/01/10 08:17:28;;;;;;;25.32;10.30;;;;;;;2.42;84.36;98398.88;1684570;79;21129;-90
2022/01/10 08:19:57;;;;;;;24.75;9.95;;;;;;;2.42;83.46;98390.33;1690240;80;21160;-90
2022/01/10 08:22:27;;;;;;;23.52;9.23;;;;;;;2.49;83.02;98398.44;1680571;82;21298;-87
2022/01/10 08:24:54;;;;;;;30.62;10.68;;;;;;;2.54;83.25;98397.98;1705832;83;21504;-89
2022/01/10 08:27:22;;;;;;;26.93;10.38;;;;;;;2.57;83.63;98397.54;1698981;83;21558;-87
2022/01/10 08:29:50;;;;;;;31.68;12.33;;;;;;;2.59;82.94;98402.67;1707752;79;21127;-89
2022/01/10 08:32:20;;;;;;;34.30;12.35;;;;;;;2.65;83.52;98396.67;1697364;79;21082;-90
2022/01/10 08:34:47;;;;;;;33.92;12.60;;;;;;;2.69;83.09;98397.92;1722990;83;21504;-89
2022/01/10 08:37:17;;;;;;;31.20;11.35;;;;;;;2.76;83.70;98398.73;1667166;79;21092;-89
2022/01/10 08:39:49;;;;;;;30.10;12.05;;;;;;;2.81;83.49;98398.30;1664541;81;21120;-86
2022/01/10 08:42:19;;;;;;;34.65;14.68;;;;;;;2.81;83.16;98403.86;1668476;80;21067;-90
2022/01/10 08:44:48;;;;;;;38.33;13.32;;;;;;;2.90;83.19;98410.22;1759968;80;21111;-92
2022/01/10 08:47:16;;;;;;;32.88;12.13;;;;;;;2.89;83.12;98396.97;1759724;79;21039;-85
2022/01/10 08:49:44;;;;;;;29.25;11.30;;;;;;;2.92;82.18;98405.48;1702808;79;21573;-92
2022/01/10 08:52:12;;;;;;;25.75;10.82;;;;;;;3.01;82.84;98402.47;1711063;83;21047;-92
2022/01/10 08:54:39;;;;;;;29.35;12.05;;;;;;;3.04;82.68;98413.55;1716734;83;21045;-91
2022/01/10 08:57:06;;;;;;;25.45;11.28;;;;;;;2.92;81.27;98418.77;1701260;83;21029;-89
2022/01/10 08:59:34;;;;;;;36.38;13.68;;;;;;;2.89;80.75;98413.66;1706868;83;21127;-92
2022/01/10 09:02:02;;;;;;;44.53;16.23;;;;;;;2.89;81.37;98418.36;1679898;83;21471;-91
2022/01/10 09:04:29;;;;;;;26.80;10.68;;;;;;;2.85;81.46;98418.39;1700960;83;21114;-90
2022/01/10 09:07:02;;;;;;;26.00;9.75;;;;;;;2.86;82.03;98421.36;1700193;83;21854;-88
2022/01/10 09:09:30;;;;;;;28.52;12.15;;;;;;;2.83;81.57;98413.25;1680287;83;21092;-86
2022/01/10 09:11:58;;;;;;;25.05;10.60;;;;;;;2.81;81.60;98416.27;1649181;83;21097;-88
2022/01/10 09:14:25;;;;;;;22.60;9.40;;;;;;;2.74;81.60;98423.12;1677996;84;21039;-90
2022/01/10 09:16:53;;;;;;;26.30;10.23;;;;;;;2.76;81.27;98417.98;1673203;83;21062;-89
2022/01/10 09:19:20;;;;;;;26.42;10.68;;;;;;;2.72;81.87;98421.42;1699477;81;21089;-91
2022/01/10 09:21:49;;;;;;;25.57;10.78;;;;;;;2.77;81.75;98431.25;1740027;81;21523;-92
2022/01/10 09:24:17;;;;;;;27.48;10.03;;;;;;;2.73;80.96;98425.28;1671728;80;21078;-90
2022/01/10 09:26:44;;;;;;;27.42;10.70;;;;;;;2.80;81.67;98423.52;1694616;83;21024;-91
2022/01/10 09:29:12;;;;;;;28.17;10.93;;;;;;;2.82;81.63;98425.66;1682744;82;21116;-92
2022/01/10 09:31:42;;;;;;;32.05;13.08;;;;;;;2.87;81.04;98426.94;1704458;83;21074;-91
2022/01/10 09:34:12;;;;;;;25.15;11.05;;;;;;;2.90;81.18;98420.05;1701626;80;21170;-89
2022/01/10 09:36:40;;;;;;;24.50;10.90;;;;;;;2.97;81.13;98425.58;1730672;80;22962;-85
2022/01/10 09:39:09;;;;;;;29.48;13.05;;;;;;;2.94;81.19;98432.00;1701410;80;21299;-87
2022/01/10 09:41:37;;;;;;;41.55;14.58;;;;;;;2.94;81.42;98432.45;1687326;83;21080;-92
2022/01/10 09:44:07;;;;;;;35.15;13.78;;;;;;;3.03;81.32;98436.26;1687316;84;21204;-89
2022/01/10 09:46:36;;;;;;;33.15;12.33;;;;;;;3.07;81.00;98443.52;1684422;83;21087;-89
2022/01/10 09:49:05;;;;;;;30.02;12.18;;;;;;;3.07;80.04;98442.23;1681636;84;21031;-84
2022/01/10 09:51:33;;;;;;;23.42;9.98;;;;;;;3.12;80.82;98432.78;1642225;82;21127;-90
2022/01/10 09:54:02;;;;;;;30.95;12.40;;;;;;;3.20;81.11;98433.58;1636072;82;21106;-90
2022/01/10 09:56:31;;;;;;;29.45;13.40;;;;;;;3.19;80.71;98425.47;1687254;78;21064;-87
2022/01/10 09:59:00;;;;;;;33.83;13.20;;;;;;;3.16;81.23;98428.92;1674704;83;21058;-84
2022/01/10 10:01:35;;;;;;;66.57;28.70;;;;;;;3.23;81.28;98432.73;1673833;86;21063;-85
2022/01/10 10:04:03;;;;;;;26.12;10.68;;;;;;;3.30;80.78;98426.27;1660502;82;21230;-90
2022/01/10 10:06:33;;;;;;;23.60;9.95;;;;;;;3.37;79.85;98429.63;1666258;85;21067;-88
2022/01/10 10:09:04;;;;;;;27.90;12.05;;;;;;;3.34;79.16;98428.35;1638963;87;21098;-83
2022/01/10 10:11:49;;;;;;;24.07;9.85;;;;;;;3.32;78.98;98428.39;1673116;82;21102;-90
2022/01/10 10:14:21;;;;;;;33.63;11.30;;;;;;;3.37;78.04;98436.05;1703987;84;21038;-86
2022/01/10 10:16:52;;;;;;;32.95;10.58;;;;;;;3.41;79.40;98430.47;1679986;79;21634;-91
2022/01/10 10:19:27;;;;;;;26.68;9.70;;;;;;;3.43;78.25;98433.88;1657890;83;21126;-91
2022/01/10 10:22:00;;;;;;;25.70;10.05;;;;;;;3.45;79.39;98429.58;1641951;84;21174;-90
2022/01/10 10:24:28;;;;;;;21.12;8.83;;;;;;;3.39;78.53;98436.89;1697863;83;21067;-91
2022/01/10 10:26:57;;;;;;;23.12;10.15;;;;;;;3.46;79.33;98440.27;1700994;84;21063;-89
2022/01/10 10:29:25;;;;;;;21.57;8.30;;;;;;;3.34;77.88;98447.63;1674209;83;21073;-82
2022/01/10 10:31:55;;;;;;;25.45;10.08;;;;;;;3.35;78.10;98445.49;1687082;84;20977;-83
2022/01/10 10:34:27;;;;;;;19.82;7.75;;;;;;;3.31;77.00;98442.08;1707681;83;21077;-84
2022/01/10 10:37:09;;;;;;;19.52;8.95;;;;;;;3.35;77.83;98446.78;1687467;84;21007;-84
2022/01/10 10:39:40;;;;;;;29.57;9.40;;;;;;;3.30;78.69;98446.81;1703398;84;21015;-86
2022/01/10 10:42:12;;;;;;;20.88;8.60;;;;;;;3.26;77.96;98441.25;1683772;83;21230;-90
2022/01/10 10:44:42;;;;;;;27.58;10.65;;;;;;;3.27;77.81;98440.40;1682901;82;21096;-85
2022/01/10 10:47:17;;;;;;;21.90;9.90;;;;;;;3.32;78.05;98439.95;1685783;84;21109;-86
2022/01/10 10:52:22;;;;;;;21.97;9.30;;;;;;;3.44;78.78;98447.13;1716959;82;21019;-84
2022/01/10 10:54:50;;;;;;;20.10;8.55;;;;;;;3.42;77.34;98448.86;1721866;82;21344;-88
2022/01/10 10:57:17;;;;;;;19.62;8.45;;;;;;;3.42;77.83;98453.56;1716746;82;21119;-88
2022/01/10 10:59:46;;;;;;;20.88;8.35;;;;;;;3.47;77.59;98456.13;1706121;83;21542;-90
2022/01/10 11:02:13;;;;;;;21.27;9.38;;;;;;;3.52;77.93;98455.64;1695411;83;21069;-85
2022/01/10 11:04:42;;;;;;;21.20;8.85;;;;;;;3.51;77.83;98460.38;1693388;83;21067;-84
2022/01/10 11:07:10;;;;;;;22.82;9.53;;;;;;;3.51;77.94;98452.67;1681227;85;21063;-85
2022/01/10 11:09:38;;;;;;;24.40;9.53;;;;;;;3.55;77.78;98459.05;1702443;83;21044;-85
2022/01/10 11:12:06;;;;;;;22.42;8.88;;;;;;;3.53;76.79;98459.49;1704983;80;21022;-86
2022/01/10 11:14:34;;;;;;;26.48;10.88;;;;;;;3.49;76.89;98456.97;1703930;83;21089;-85
2022/01/10 11:17:02;;;;;;;22.73;9.10;;;;;;;3.46;77.49;98461.70;1670124;80;21611;-89
2022/01/10 11:19:31;;;;;;;22.13;9.43;;;;;;;3.48;77.08;98454.84;1643085;85;21039;-88
2022/01/10 11:22:05;;;;;;;22.58;9.65;;;;;;;3.48;77.86;98461.67;1635694;86;21016;-86
2022/01/10 11:24:48;;;;;;;23.70;9.48;;;;;;;3.52;77.07;98462.06;1629049;86;21076;-82
2022/01/10 11:27:36;;;;;;;28.00;10.08;;;;;;;3.57;76.93;98459.05;1639671;84;21083;-85
2022/01/10 11:30:29;;;;;;;22.67;8.50;;;;;;;3.54;77.51;98462.91;1637877;84;21080;-84
2022/01/10 11:33:11;;;;;;;32.25;11.10;;;;;;;3.51;77.01;98462.95;1642224;86;21184;-84
2022/01/10 11:35:43;;;;;;;29.02;10.65;;;;;;;3.43;77.39;98463.44;1639736;87;21077;-85
2022/01/10 11:38:25;;;;;;;27.27;10.15;;;;;;;3.49;77.88;98463.39;1646932;86;21010;-85
2022/01/10 11:41:04;;;;;;;22.52;9.28;;;;;;;3.49;77.88;98463.39;1602694;86;21036;-84
2022/01/10 11:43:53;;;;;;;25.17;10.55;;;;;;;3.47;77.29;98466.41;1628383;86;21111;-84
2022/01/10 11:46:32;;;;;;;25.10;10.75;;;;;;;3.52;77.97;98474.51;1606020;88;21064;-84
2022/01/10 11:49:13;;;;;;;21.40;9.08;;;;;;;3.58;77.96;98478.32;1651785;84;21024;-84
2022/01/10 11:51:51;;;;;;;23.67;9.05;;;;;;;3.59;78.03;98478.72;1630058;85;20993;-85
2022/01/10 11:54:38;;;;;;;23.00;8.88;;;;;;;3.69;77.80;98484.66;1635178;85;21047;-86
2022/01/10 11:57:12;;;;;;;25.23;9.88;;;;;;;3.70;77.33;98479.95;1627519;83;21019;-83
2022/01/10 11:59:51;;;;;;;;;;;;;;;3.66;77.54;98482.13;1644027;83;21093;-84
2022/01/10 12:02:23;;;;;;;23.77;9.58;;;;;;;3.68;77.95;98484.66;1607796;86;20116;-85
2022/01/10 12:04:58;;;;;;;21.80;9.03;;;;;;;3.74;78.52;98488.47;1634683;84;21288;-87
2022/01/10 12:07:27;;;;;;;22.58;9.55;;;;;;;3.75;78.51;98478.18;1636778;85;21071;-83
2022/01/10 12:09:57;;;;;;;23.38;9.08;;;;;;;3.85;78.53;98484.55;1644652;85;21086;-84
2022/01/10 12:12:25;;;;;;;24.02;9.75;;;;;;;3.81;77.50;98486.73;1640469;85;21112;-83
2022/01/10 12:14:54;;;;;;;24.35;10.30;;;;;;;3.84;78.41;98491.83;1617893;86;21094;-83
2022/01/10 12:17:21;;;;;;;28.38;9.80;;;;;;;3.85;78.23;98492.27;1615188;87;21144;-85
2022/01/10 12:19:49;;;;;;;25.70;10.48;;;;;;;3.90;77.61;98497.80;1610362;89;21069;-85
2022/01/10 12:22:20;;;;;;;27.45;9.08;;;;;;;3.85;77.61;98496.12;1632512;85;21124;-84
2022/01/10 12:24:47;;;;;;;23.73;9.93;;;;;;;3.87;77.58;98495.67;1614309;87;21056;-87
2022/01/10 12:27:15;;;;;;;24.02;9.70;;;;;;;3.87;77.63;98504.23;1630052;86;21150;-83
2022/01/10 12:29:43;;;;;;;21.75;9.50;;;;;;;3.90;77.38;98508.49;1617769;86;21077;-86
2022/01/10 12:32:11;;;;;;;21.07;9.30;;;;;;;3.94;77.84;98511.49;1600679;86;21119;-89
2022/01/10 12:34:42;;;;;;;23.80;9.60;;;;;;;3.94;76.71;98523.06;1712306;79;21059;-91
2022/01/10 12:37:10;;;;;;;27.73;9.28;;;;;;;3.93;77.29;98520.05;1810185;77;21086;-91
2022/01/10 12:39:43;;;;;;;29.27;10.70;;;;;;;3.89;77.15;98521.80;1804041;76;21186;-91
2022/01/10 12:42:11;;;;;;;23.75;9.90;;;;;;;3.85;76.82;98531.69;1732371;79;21643;-90
2022/01/10 12:47:46;;;;;;;26.40;10.65;;;;;;;3.77;76.61;98530.45;1757646;79;21219;-86
2022/01/10 12:50:14;;;;;;;23.42;10.20;;;;;;;3.77;77.38;98534.30;1742542;78;21054;-92
2022/01/10 12:52:42;;;;;;;29.27;9.98;;;;;;;3.73;77.05;98537.76;1697467;83;21332;-91
2022/01/10 12:55:10;;;;;;;23.87;9.73;;;;;;;3.63;77.14;98546.84;1716583;82;21157;-92
2022/01/10 12:57:38;;;;;;;23.80;9.88;;;;;;;3.56;77.12;98546.00;1738243;80;21101;-85
2022/01/10 13:00:08;;;;;;;31.33;11.15;;;;;;;3.53;77.23;98546.88;1750546;81;21042;-88
2022/01/10 13:02:36;;;;;;;29.32;10.28;;;;;;;3.53;77.25;98557.59;1718325;82;21031;-92
2022/01/10 13:05:08;;;;;;;24.43;10.48;;;;;;;3.56;77.17;98561.42;1728936;80;21156;-94
2022/01/10 13:07:39;;;;;;;25.60;9.85;;;;;;;3.57;77.43;98560.58;1662494;83;21131;-90
2022/01/10 13:10:11;;;;;;;28.17;9.48;;;;;;;3.57;77.56;98569.13;1685872;81;21181;-89
2022/01/10 13:12:40;;;;;;;30.30;11.73;;;;;;;3.54;77.32;98565.30;1674968;82;21158;-86
2022/01/10 13:15:14;;;;;;;28.23;10.53;;;;;;;3.55;77.32;98571.30;1679903;82;21070;-90